createdAt,value
2017-04-19T00:00:26.181Z,1024.93
2017-04-19T00:01:26.196Z,1024.89
2017-04-19T00:02:26.213Z,1024.95
2017-04-19T00:03:26.230Z,1024.92
2017-04-19T00:04:26.247Z,1024.84
2017-04-19T00:05:26.261Z,1024.97
2017-04-19T00:06:26.279Z,1024.94
2017-04-19T00:07:26.296Z,1024.94
2017-04-19T00:09:26.328Z,1024.94
2017-04-19T00:10:26.344Z,1024.94
2017-04-19T00:11:26.361Z,1024.99
2017-04-19T00:12:26.377Z,1024.99
2017-04-19T00:13:26.393Z,1024.93
2017-04-19T00:14:26.410Z,1024.96
2017-04-19T00:15:26.426Z,1024.95
2017-04-19T00:16:26.442Z,1024.97
2017-04-19T00:17:26.459Z,1024.92
2017-04-19T00:18:26.475Z,1024.98
2017-04-19T00:19:26.491Z,1024.98
2017-04-19T00:20:26.508Z,1024.98
2017-04-19T00:21:26.526Z,1025.09
2017-04-19T00:22:26.541Z,1024.99
2017-04-19T00:23:26.556Z,1025.04
2017-04-19T00:25:26.589Z,1025.03
2017-04-19T00:26:26.609Z,1025.05
2017-04-19T00:27:26.621Z,1025.04
2017-04-19T00:28:26.638Z,1025.13
2017-04-19T00:29:26.655Z,1025.01
2017-04-19T00:30:26.672Z,1025.03
2017-04-19T00:31:26.686Z,1025.04
2017-04-19T00:32:26.703Z,1025.1
2017-04-19T00:33:26.719Z,1025.08
2017-04-19T00:34:26.735Z,1025.06
2017-04-19T00:35:26.751Z,1025.17
2017-04-19T00:36:26.768Z,1025.16
2017-04-19T00:37:26.784Z,1025.09
2017-04-19T00:38:26.800Z,1025.24
2017-04-19T00:40:26.834Z,1025.15
2017-04-19T00:41:26.849Z,1025.1
2017-04-19T00:42:26.865Z,1025.19
2017-04-19T00:43:26.882Z,1025.1
2017-04-19T00:44:26.898Z,1025.1
2017-04-19T00:45:26.913Z,1025.11
2017-04-19T00:46:26.930Z,1025.19
2017-04-19T00:47:26.946Z,1025.14
2017-04-19T00:48:26.961Z,1025.2
2017-04-19T00:49:26.977Z,1025.16
2017-04-19T00:50:26.994Z,1025.25
2017-04-19T00:51:27.010Z,1025.18
2017-04-19T00:52:27.025Z,1025.21
2017-04-19T00:53:27.041Z,1025.18
2017-04-19T00:54:27.057Z,1025.26
2017-04-19T00:55:27.074Z,1025.24
2017-04-19T00:56:27.089Z,1025.18
2017-04-19T00:57:27.106Z,1025.23
2017-04-19T00:58:27.120Z,1025.23
2017-04-19T00:59:27.137Z,1025.27
2017-04-19T01:00:27.153Z,1025.28
2017-04-19T01:01:27.169Z,1025.28
2017-04-19T01:02:27.185Z,1025.31
2017-04-19T01:03:27.200Z,1025.32
2017-04-19T01:04:27.216Z,1025.33
2017-04-19T01:05:27.232Z,1025.37
2017-04-19T01:06:27.249Z,1025.36
2017-04-19T01:07:27.264Z,1025.42
2017-04-19T01:08:27.279Z,1025.4
2017-04-19T01:09:27.296Z,1025.38
2017-04-19T01:10:27.312Z,1025.38
2017-04-19T01:12:27.342Z,1025.38
2017-04-19T01:13:27.359Z,1025.43
2017-04-19T01:14:27.374Z,1025.41
2017-04-19T01:15:27.389Z,1025.4
2017-04-19T01:16:27.405Z,1025.4
2017-04-19T01:17:27.422Z,1025.44
2017-04-19T01:18:27.436Z,1025.44
2017-04-19T01:19:27.452Z,1025.41
2017-04-19T01:20:27.469Z,1025.46
2017-04-19T01:21:27.483Z,1025.43
2017-04-19T01:22:27.499Z,1025.47
2017-04-19T01:23:27.515Z,1025.35
2017-04-19T01:24:27.531Z,1025.4
2017-04-19T01:25:27.546Z,1025.45
2017-04-19T01:26:27.562Z,1025.44
2017-04-19T01:28:27.594Z,1025.4
2017-04-19T01:29:27.608Z,1025.45
2017-04-19T01:30:27.625Z,1025.46
2017-04-19T01:31:27.641Z,1025.42
2017-04-19T01:32:27.655Z,1025.42
2017-04-19T01:33:27.672Z,1025.45
2017-04-19T01:34:27.687Z,1025.38
2017-04-19T01:35:27.703Z,1025.45
2017-04-19T01:36:27.718Z,1025.45
2017-04-19T01:37:27.733Z,1025.45
2017-04-19T01:38:27.749Z,1025.46
2017-04-19T01:39:27.765Z,1025.43
2017-04-19T01:40:27.780Z,1025.4
2017-04-19T01:41:27.796Z,1025.45
2017-04-19T01:42:27.812Z,1025.44
2017-04-19T01:44:27.842Z,1025.43
2017-04-19T01:45:27.858Z,1025.45
2017-04-19T01:46:27.874Z,1025.48
2017-04-19T01:47:27.889Z,1025.48
2017-04-19T01:48:27.904Z,1025.47
2017-04-19T01:49:27.970Z,1025.45
2017-04-19T01:50:27.936Z,1025.42
2017-04-19T01:51:27.951Z,1025.43
2017-04-19T01:52:27.967Z,1025.45
2017-04-19T01:53:27.983Z,1025.5
2017-04-19T01:54:27.997Z,1025.47
2017-04-19T01:55:28.012Z,1025.47
2017-04-19T01:56:28.028Z,1025.47
2017-04-19T01:57:28.044Z,1025.48
2017-04-19T01:58:28.058Z,1025.5
2017-04-19T02:00:28.090Z,1025.5
2017-04-19T02:01:28.107Z,1025.51
2017-04-19T02:02:28.120Z,1025.51
2017-04-19T02:03:28.135Z,1025.58
2017-04-19T02:04:28.151Z,1025.55
2017-04-19T02:05:28.166Z,1025.55
2017-04-19T02:06:28.183Z,1025.58
2017-04-19T02:07:28.204Z,1025.55
2017-04-19T02:08:28.213Z,1025.6
2017-04-19T02:09:28.227Z,1025.58
2017-04-19T02:10:28.242Z,1025.57
2017-04-19T02:11:28.259Z,1025.57
2017-04-19T02:12:28.273Z,1025.55
2017-04-19T02:13:28.290Z,1025.56
2017-04-19T02:15:28.321Z,1025.57
2017-04-19T02:16:28.335Z,1025.62
2017-04-19T02:17:28.350Z,1025.63
2017-04-19T02:18:28.369Z,1025.6
2017-04-19T02:19:28.382Z,1025.62
2017-04-19T02:20:28.397Z,1025.61
2017-04-19T02:21:28.411Z,1025.68
2017-04-19T02:22:28.427Z,1025.64
2017-04-19T02:23:28.440Z,1025.67
2017-04-19T02:24:28.457Z,1025.68
2017-04-19T02:25:28.473Z,1025.69
2017-04-19T02:26:28.487Z,1025.7
2017-04-19T02:27:28.502Z,1025.7
2017-04-19T02:28:28.517Z,1025.72
2017-04-19T02:29:28.533Z,1025.73
2017-04-19T02:30:28.549Z,1025.72
2017-04-19T02:31:28.562Z,1025.71
2017-04-19T02:32:28.578Z,1025.79
2017-04-19T02:33:28.593Z,1025.8
2017-04-19T02:34:28.607Z,1025.77
2017-04-19T02:35:28.622Z,1025.73
2017-04-19T02:36:28.638Z,1025.78
2017-04-19T02:37:28.653Z,1025.75
2017-04-19T02:38:28.668Z,1025.8
2017-04-19T02:39:28.683Z,1025.81
2017-04-19T02:40:29.048Z,1025.79
2017-04-19T02:41:28.714Z,1025.79
2017-04-19T02:42:28.728Z,1025.76
2017-04-19T02:43:28.743Z,1025.75
2017-04-19T02:44:28.761Z,1025.81
2017-04-19T02:45:28.773Z,1025.86
2017-04-19T02:47:28.804Z,1025.81
2017-04-19T02:48:28.819Z,1025.86
2017-04-19T02:49:28.836Z,1025.87
2017-04-19T02:50:28.848Z,1025.92
2017-04-19T02:51:28.867Z,1025.88
2017-04-19T02:52:28.878Z,1025.86
2017-04-19T02:53:28.896Z,1025.93
2017-04-19T02:54:28.907Z,1025.91
2017-04-19T02:55:29.024Z,1025.96
2017-04-19T02:56:28.937Z,1025.95
2017-04-19T02:57:28.952Z,1026.02
2017-04-19T02:58:28.967Z,1025.99
2017-04-19T02:59:28.983Z,1025.95
2017-04-19T03:00:28.996Z,1025.94
2017-04-19T03:01:29.013Z,1026
2017-04-19T03:03:29.044Z,1025.99
2017-04-19T03:04:29.056Z,1025.98
2017-04-19T03:05:29.071Z,1025.96
2017-04-19T03:06:29.085Z,1025.99
2017-04-19T03:07:29.101Z,1026
2017-04-19T03:08:29.115Z,1026.03
2017-04-19T03:09:29.131Z,1026.04
2017-04-19T03:10:29.149Z,1026.06
2017-04-19T03:11:29.160Z,1026.01
2017-04-19T03:12:29.175Z,1026.03
2017-04-19T03:13:29.190Z,1026.07
2017-04-19T03:14:29.205Z,1026.04
2017-04-19T03:15:29.219Z,1026.1
2017-04-19T03:16:29.234Z,1026.08
2017-04-19T03:17:29.249Z,1026.08
2017-04-19T03:19:29.277Z,1026.1
2017-04-19T03:20:29.293Z,1026.09
2017-04-19T03:21:29.308Z,1026.11
2017-04-19T03:22:29.324Z,1026.12
2017-04-19T03:23:29.337Z,1026.14
2017-04-19T03:24:29.353Z,1026.11
2017-04-19T03:25:29.367Z,1026.11
2017-04-19T03:26:29.381Z,1026.12
2017-04-19T03:27:29.397Z,1026.17
2017-04-19T03:28:29.411Z,1026.14
2017-04-19T03:29:29.425Z,1026.1
2017-04-19T03:30:29.440Z,1026.13
2017-04-19T03:31:29.458Z,1026.17
2017-04-19T03:32:29.469Z,1026.13
2017-04-19T03:33:29.483Z,1026.17
2017-04-19T03:35:29.513Z,1026.22
2017-04-19T03:36:29.528Z,1026.2
2017-04-19T03:37:29.542Z,1026.15
2017-04-19T03:38:29.559Z,1026.2
2017-04-19T03:39:29.571Z,1026.2
2017-04-19T03:40:29.586Z,1026.25
2017-04-19T03:41:29.600Z,1026.2
2017-04-19T03:42:29.615Z,1026.23
2017-04-19T03:43:29.630Z,1026.2
2017-04-19T03:44:29.644Z,1026.24
2017-04-19T03:45:29.658Z,1026.22
2017-04-19T03:46:29.674Z,1026.33
2017-04-19T03:47:29.688Z,1026.33
2017-04-19T03:48:29.703Z,1026.34
2017-04-19T03:50:29.732Z,1026.27
2017-04-19T03:51:29.746Z,1026.32
2017-04-19T03:52:29.762Z,1026.38
2017-04-19T03:53:29.776Z,1026.37
2017-04-19T03:54:29.790Z,1026.38
2017-04-19T03:55:29.804Z,1026.4
2017-04-19T03:56:29.820Z,1026.4
2017-04-19T03:57:29.834Z,1026.41
2017-04-19T03:58:29.848Z,1026.44
2017-04-19T03:59:29.862Z,1026.46
2017-04-19T04:00:29.877Z,1026.5
2017-04-19T04:01:29.892Z,1026.42
2017-04-19T04:02:29.905Z,1026.45
2017-04-19T04:03:29.920Z,1026.44
2017-04-19T04:04:29.934Z,1026.45
2017-04-19T04:05:29.949Z,1026.46
2017-04-19T04:06:29.963Z,1026.47
2017-04-19T04:07:29.978Z,1026.46
2017-04-19T04:08:29.994Z,1026.51
2017-04-19T04:09:30.207Z,1026.49
2017-04-19T04:10:30.021Z,1026.51
2017-04-19T04:11:30.039Z,1026.51
2017-04-19T04:12:30.050Z,1026.51
2017-04-19T04:13:30.063Z,1026.55
2017-04-19T04:14:30.078Z,1026.52
2017-04-19T04:15:30.093Z,1026.57
2017-04-19T04:16:30.108Z,1026.6
2017-04-19T04:17:30.122Z,1026.55
2017-04-19T04:18:30.135Z,1026.61
2017-04-19T04:19:30.151Z,1026.58
2017-04-19T04:20:30.164Z,1026.63
2017-04-19T04:22:30.194Z,1026.65
2017-04-19T04:23:30.209Z,1026.64
2017-04-19T04:24:30.223Z,1026.62
2017-04-19T04:25:30.238Z,1026.66
2017-04-19T04:26:30.252Z,1026.65
2017-04-19T04:27:30.267Z,1026.67
2017-04-19T04:28:30.281Z,1026.7
2017-04-19T04:29:30.295Z,1026.72
2017-04-19T04:30:30.310Z,1026.72
2017-04-19T04:31:30.324Z,1026.67
2017-04-19T04:32:30.339Z,1026.72
2017-04-19T04:33:30.354Z,1026.76
2017-04-19T04:34:30.369Z,1026.79
2017-04-19T04:35:30.382Z,1026.8
2017-04-19T04:36:30.397Z,1026.74
2017-04-19T04:38:30.426Z,1026.75
2017-04-19T04:39:30.441Z,1026.8
2017-04-19T04:40:30.456Z,1026.8
2017-04-19T04:41:30.470Z,1026.75
2017-04-19T04:42:30.489Z,1026.79
2017-04-19T04:43:30.499Z,1026.84
2017-04-19T04:44:30.514Z,1026.89
2017-04-19T04:45:30.529Z,1026.95
2017-04-19T04:46:30.543Z,1027.04
2017-04-19T04:47:30.558Z,1027.12
2017-04-19T04:48:30.574Z,1027.18
2017-04-19T04:49:30.590Z,1027.16
2017-04-19T04:50:30.604Z,1027.21
2017-04-19T04:51:30.621Z,1027.18
2017-04-19T04:52:30.639Z,1027.24
2017-04-19T04:54:30.672Z,1027.25
2017-04-19T04:55:30.690Z,1027.27
2017-04-19T04:56:30.708Z,1027.31
2017-04-19T04:57:30.726Z,1027.33
2017-04-19T04:58:30.745Z,1027.3
2017-04-19T04:59:30.766Z,1027.34
2017-04-19T05:00:30.786Z,1027.35
2017-04-19T05:01:30.805Z,1027.31
2017-04-19T05:02:30.825Z,1027.36
2017-04-19T05:03:30.846Z,1027.39
2017-04-19T05:04:30.866Z,1027.44
2017-04-19T05:05:30.888Z,1027.45
2017-04-19T05:06:30.910Z,1027.48
2017-04-19T05:07:30.932Z,1027.48
2017-04-19T05:08:30.956Z,1027.46
2017-04-19T05:10:30.999Z,1027.51
2017-04-19T05:11:31.021Z,1027.54
2017-04-19T05:12:31.046Z,1027.46
2017-04-19T05:13:31.067Z,1027.46
2017-04-19T05:14:31.091Z,1027.44
2017-04-19T05:15:31.114Z,1027.53
2017-04-19T05:16:31.137Z,1027.52
2017-04-19T05:17:31.161Z,1027.52
2017-04-19T05:18:31.185Z,1027.48
2017-04-19T05:19:31.209Z,1027.5
2017-04-19T05:20:31.233Z,1027.52
2017-04-19T05:21:31.257Z,1027.56
2017-04-19T05:22:31.281Z,1027.61
2017-04-19T05:23:31.305Z,1027.65
2017-04-19T05:25:31.354Z,1027.65
2017-04-19T05:26:31.377Z,1027.81
2017-04-19T05:27:31.402Z,1027.92
2017-04-19T05:28:31.427Z,1027.89
2017-04-19T05:29:31.452Z,1027.94
2017-04-19T05:30:31.476Z,1027.92
2017-04-19T05:31:31.501Z,1027.97
2017-04-19T05:32:31.524Z,1027.97
2017-04-19T05:33:31.549Z,1027.89
2017-04-19T05:34:31.575Z,1027.96
2017-04-19T05:35:31.600Z,1027.99
2017-04-19T05:36:31.625Z,1028.04
2017-04-19T05:37:31.650Z,1028.02
2017-04-19T05:38:31.675Z,1028.05
2017-04-19T05:39:31.701Z,1028.06
2017-04-19T05:40:31.728Z,1028.1
2017-04-19T05:41:31.752Z,1028.08
2017-04-19T05:42:31.779Z,1028.07
2017-04-19T05:43:31.804Z,1028.07
2017-04-19T05:44:31.830Z,1028.11
2017-04-19T05:45:31.857Z,1028.1
2017-04-19T05:46:31.883Z,1028.12
2017-04-19T05:47:31.910Z,1028.19
2017-04-19T05:48:31.940Z,1028.17
2017-04-19T05:49:31.963Z,1028.13
2017-04-19T05:50:31.990Z,1028.2
2017-04-19T05:51:32.017Z,1028.22
2017-04-19T05:52:32.043Z,1028.22
2017-04-19T05:53:32.070Z,1028.25
2017-04-19T05:54:32.098Z,1028.42
2017-04-19T05:55:32.125Z,1028.7
2017-04-19T05:57:32.180Z,1028.7
2017-04-19T05:58:32.208Z,1028.75
2017-04-19T05:59:32.234Z,1028.81
2017-04-19T06:00:32.262Z,1028.82
2017-04-19T06:01:32.291Z,1028.9
2017-04-19T06:02:32.318Z,1028.94
2017-04-19T06:03:32.346Z,1029.02
2017-04-19T06:04:32.373Z,1029.1
2017-04-19T06:05:32.402Z,1029.24
2017-04-19T06:06:32.429Z,1029.22
2017-04-19T06:07:32.462Z,1029.34
2017-04-19T06:08:32.486Z,1029.41
2017-04-19T06:09:32.515Z,1029.53
2017-04-19T06:10:32.543Z,1029.5
2017-04-19T06:11:32.571Z,1029.55
2017-04-19T06:13:32.630Z,1029.65
2017-04-19T06:14:32.657Z,1029.69
2017-04-19T06:15:32.687Z,1029.76
2017-04-19T06:16:32.716Z,1029.67
2017-04-19T06:17:32.744Z,1029.69
2017-04-19T06:18:32.773Z,1029.6
2017-04-19T06:19:32.803Z,1029.64
2017-04-19T06:20:32.832Z,1029.58
2017-04-19T06:21:32.861Z,1029.67
2017-04-19T06:22:32.891Z,1029.69
2017-04-19T06:23:32.920Z,1029.73
2017-04-19T06:24:32.950Z,1029.69
2017-04-19T06:25:32.980Z,1029.68
2017-04-19T06:26:33.009Z,1029.69
2017-04-19T06:27:33.038Z,1029.68
2017-04-19T06:29:33.098Z,1029.75
2017-04-19T06:30:33.129Z,1029.75
2017-04-19T06:31:33.159Z,1029.68
2017-04-19T06:32:33.188Z,1029.65
2017-04-19T06:33:33.218Z,1029.65
2017-04-19T06:34:33.249Z,1029.67
2017-04-19T06:35:33.280Z,1029.73
2017-04-19T06:36:33.309Z,1029.77
2017-04-19T06:37:33.339Z,1029.62
2017-04-19T06:38:33.369Z,1029.66
2017-04-19T06:39:33.401Z,1029.56
2017-04-19T06:40:33.432Z,1029.58
2017-04-19T06:41:33.459Z,1029.53
2017-04-19T06:42:33.490Z,1029.47
2017-04-19T06:43:33.520Z,1029.54
2017-04-19T06:45:33.581Z,1029.47
2017-04-19T06:46:33.611Z,1029.6
2017-04-19T06:47:33.641Z,1029.64
2017-04-19T06:48:33.672Z,1029.52
2017-04-19T06:49:33.703Z,1029.46
2017-04-19T06:50:33.733Z,1029.48
2017-04-19T06:51:33.762Z,1029.56
2017-04-19T06:52:33.793Z,1029.39
2017-04-19T06:53:33.824Z,1029.52
2017-04-19T06:54:33.857Z,1029.51
2017-04-19T06:55:33.887Z,1029.51
2017-04-19T06:56:33.917Z,1029.52
2017-04-19T06:57:33.946Z,1029.58
2017-04-19T06:58:33.977Z,1029.59
2017-04-19T07:00:34.040Z,1029.64
2017-04-19T07:01:34.069Z,1029.62
2017-04-19T07:02:34.099Z,1029.55
2017-04-19T07:03:34.130Z,1029.56
2017-04-19T07:04:34.261Z,1029.52
2017-04-19T07:05:34.191Z,1029.55
2017-04-19T07:06:34.222Z,1029.71
2017-04-19T07:07:34.253Z,1028.4
2017-04-19T07:08:34.283Z,1028.75
2017-04-19T07:09:34.313Z,1028.41
2017-04-19T07:10:34.343Z,1028.56
2017-04-19T07:11:34.373Z,1029.41
2017-04-19T07:12:34.402Z,1029.42
2017-04-19T07:13:34.432Z,1029.46
2017-04-19T07:14:34.461Z,1028.34
2017-04-19T07:15:34.490Z,1029.35
2017-04-19T07:16:34.518Z,1029.35
2017-04-19T07:17:34.547Z,1029.19
2017-04-19T07:18:34.576Z,1029.45
2017-04-19T07:19:34.604Z,1028.74
2017-04-19T07:20:34.633Z,1028.57
2017-04-19T07:21:34.661Z,1029.36
2017-04-19T07:22:34.690Z,1028.61
2017-04-19T07:23:34.718Z,1028.61
2017-04-19T07:24:34.747Z,1028.19
2017-04-19T07:25:34.774Z,1028.28
2017-04-19T07:26:34.803Z,1028.27
2017-04-19T07:27:34.828Z,1028.17
2017-04-19T07:28:34.857Z,1028.3
2017-04-19T07:29:34.884Z,1028.32
2017-04-19T07:30:34.910Z,1028.29
2017-04-19T07:32:34.962Z,1028.57
2017-04-19T07:33:34.989Z,1028.28
2017-04-19T07:34:35.013Z,1028.42
2017-04-19T07:35:35.039Z,1029.09
2017-04-19T07:36:35.065Z,1029.08
2017-04-19T07:37:35.090Z,1029.15
2017-04-19T07:38:35.115Z,1028.33
2017-04-19T07:39:35.141Z,1028.28
2017-04-19T07:40:35.166Z,1028.28
2017-04-19T07:41:35.191Z,1028.39
2017-04-19T07:42:35.217Z,1028.31
2017-04-19T07:43:35.242Z,1028.31
2017-04-19T07:44:35.267Z,1028.35
2017-04-19T07:45:35.292Z,1028.24
2017-04-19T07:46:35.316Z,1028.34
2017-04-19T07:48:35.367Z,1028.32
2017-04-19T07:49:35.390Z,1028.33
2017-04-19T07:50:35.415Z,1028.39
2017-04-19T07:51:35.439Z,1028.44
2017-04-19T07:52:35.464Z,1028.3
2017-04-19T07:53:35.487Z,1028.32
2017-04-19T07:54:35.514Z,1028.36
2017-04-19T07:55:35.535Z,1028.33
2017-04-19T07:56:35.557Z,1028.5
2017-04-19T07:57:35.587Z,1028.61
2017-04-19T07:58:35.605Z,1028.84
2017-04-19T07:59:35.654Z,1028.78
2017-04-19T08:00:35.652Z,1028.84
2017-04-19T08:01:35.675Z,1028.81
2017-04-19T08:02:35.698Z,1028.83
2017-04-19T08:04:35.746Z,1028.5
2017-04-19T08:05:35.776Z,1028.67
2017-04-19T08:06:35.796Z,1028.87
2017-04-19T08:07:35.820Z,1028.79
2017-04-19T08:08:35.846Z,1028.8
2017-04-19T08:09:35.871Z,1028.89
2017-04-19T08:10:35.896Z,1028.92
2017-04-19T08:11:35.921Z,1028.87
2017-04-19T08:12:35.946Z,1028.41
2017-04-19T08:13:35.976Z,1028.43
2017-04-19T08:14:35.997Z,1028.47
2017-04-19T08:15:36.023Z,1028.53
2017-04-19T08:16:36.049Z,1028.84
2017-04-19T08:17:36.074Z,1028.88
2017-04-19T08:18:36.098Z,1028.59
2017-04-19T08:20:36.151Z,1028.78
2017-04-19T08:21:36.176Z,1028.84
2017-04-19T08:22:36.201Z,1028.83
2017-04-19T08:23:36.226Z,1029.01
2017-04-19T08:24:36.252Z,1029.02
2017-04-19T08:25:36.278Z,1029.05
2017-04-19T08:26:36.302Z,1028.9
2017-04-19T08:27:36.329Z,1028.44
2017-04-19T08:28:36.354Z,1028.54
2017-04-19T08:29:36.629Z,1028.61
2017-04-19T08:30:36.405Z,1028.64
2017-04-19T08:31:36.431Z,1028.49
2017-04-19T08:32:36.456Z,1028.59
2017-04-19T08:33:36.481Z,1028.7
2017-04-19T08:35:36.532Z,1028.94
2017-04-19T08:36:36.555Z,1028.56
2017-04-19T08:37:36.580Z,1028.52
2017-04-19T08:38:36.605Z,1028.52
2017-04-19T08:39:36.629Z,1028.51
2017-04-19T08:40:36.653Z,1028.56
2017-04-19T08:41:36.677Z,1028.59
2017-04-19T08:42:36.701Z,1028.68
2017-04-19T08:43:36.724Z,1028.56
2017-04-19T08:44:36.749Z,1028.52
2017-04-19T08:45:36.773Z,1028.49
2017-04-19T08:46:36.796Z,1028.52
2017-04-19T08:47:36.819Z,1028.61
2017-04-19T08:48:36.843Z,1028.5
2017-04-19T08:49:36.867Z,1028.58
2017-04-19T08:50:36.892Z,1028.57
2017-04-19T08:51:36.914Z,1028.55
2017-04-19T08:52:36.939Z,1028.58
2017-04-19T08:53:36.963Z,1028.71
2017-04-19T08:54:36.986Z,1028.62
2017-04-19T08:55:37.011Z,1028.66
2017-04-19T08:56:37.036Z,1028.57
2017-04-19T08:57:37.061Z,1028.53
2017-04-19T08:58:37.086Z,1028.44
2017-04-19T08:59:37.109Z,1028.46
2017-04-19T09:00:37.134Z,1028.5
2017-04-19T09:01:37.159Z,1028.48
2017-04-19T09:02:37.183Z,1028.5
2017-04-19T09:03:37.208Z,1028.6
2017-04-19T09:04:37.232Z,1028.62
2017-04-19T09:05:37.255Z,1028.53
2017-04-19T09:07:37.307Z,1028.56
2017-04-19T09:08:37.329Z,1028.57
2017-04-19T09:09:37.352Z,1028.55
2017-04-19T09:10:37.388Z,1028.58
2017-04-19T09:11:37.400Z,1028.59
2017-04-19T09:12:37.424Z,1028.64
2017-04-19T09:13:37.447Z,1028.73
2017-04-19T09:14:37.470Z,1028.71
2017-04-19T09:15:37.494Z,1028.69
2017-04-19T09:16:37.517Z,1028.56
2017-04-19T09:17:37.540Z,1028.66
2017-04-19T09:18:37.565Z,1028.7
2017-04-19T09:19:37.590Z,1028.67
2017-04-19T09:20:37.612Z,1028.61
2017-04-19T09:21:37.637Z,1028.64
2017-04-19T09:23:37.685Z,1028.57
2017-04-19T09:24:37.708Z,1028.69
2017-04-19T09:25:37.732Z,1028.62
2017-04-19T09:26:37.756Z,1028.66
2017-04-19T09:27:37.778Z,1028.59
2017-04-19T09:28:37.803Z,1028.58
2017-04-19T09:29:37.827Z,1028.65
2017-04-19T09:30:37.850Z,1028.61
2017-04-19T09:31:37.874Z,1028.67
2017-04-19T09:32:37.897Z,1028.63
2017-04-19T09:33:37.921Z,1028.53
2017-04-19T09:34:37.946Z,1028.55
2017-04-19T09:35:37.969Z,1028.51
2017-04-19T09:36:37.993Z,1028.51
2017-04-19T09:37:38.017Z,1028.57
2017-04-19T09:39:38.064Z,1028.48
2017-04-19T09:40:38.089Z,1028.48
2017-04-19T09:41:38.115Z,1028.6
2017-04-19T09:42:38.136Z,1028.59
2017-04-19T09:43:38.160Z,1028.57
2017-04-19T09:44:38.185Z,1028.6
2017-04-19T09:45:38.208Z,1028.68
2017-04-19T09:46:38.231Z,1028.73
2017-04-19T09:47:38.254Z,1028.74
2017-04-19T09:48:38.278Z,1028.67
2017-04-19T09:49:38.300Z,1028.75
2017-04-19T09:50:38.323Z,1028.67
2017-04-19T09:51:38.346Z,1028.64
2017-04-19T09:52:38.369Z,1028.63
2017-04-19T09:53:38.391Z,1028.63
2017-04-19T09:55:38.437Z,1028.71
2017-04-19T09:56:38.459Z,1028.66
2017-04-19T09:57:38.481Z,1028.68
2017-04-19T09:58:38.503Z,1028.58
2017-04-19T09:59:38.526Z,1028.69
2017-04-19T10:00:38.548Z,1028.68
2017-04-19T10:01:38.570Z,1028.7
2017-04-19T10:02:38.593Z,1028.71
2017-04-19T10:03:38.615Z,1028.71
2017-04-19T10:04:38.637Z,1028.67
2017-04-19T10:05:38.660Z,1028.7
2017-04-19T10:06:38.683Z,1028.71
2017-04-19T10:07:38.705Z,1028.66
2017-04-19T10:08:38.730Z,1028.76
2017-04-19T10:10:38.773Z,1028.68
2017-04-19T10:11:38.796Z,1028.77
2017-04-19T10:12:38.823Z,1028.73
2017-04-19T10:13:38.841Z,1028.7
2017-04-19T10:14:38.868Z,1028.7
2017-04-19T10:15:38.885Z,1028.76
2017-04-19T10:16:38.908Z,1028.72
2017-04-19T10:17:38.931Z,1028.71
2017-04-19T10:18:39.003Z,1028.74
2017-04-19T10:19:38.974Z,1028.7
2017-04-19T10:20:38.998Z,1028.69
2017-04-19T10:21:39.022Z,1028.75
2017-04-19T10:22:39.043Z,1028.76
2017-04-19T10:23:39.068Z,1028.75
2017-04-19T10:24:39.090Z,1028.76
2017-04-19T10:25:39.113Z,1028.65
2017-04-19T10:26:39.135Z,1028.65
2017-04-19T10:27:39.158Z,1028.81
2017-04-19T10:28:39.181Z,1028.77
2017-04-19T10:29:39.203Z,1028.79
2017-04-19T10:30:39.225Z,1028.77
2017-04-19T10:31:39.248Z,1028.77
2017-04-19T10:32:39.271Z,1028.81
2017-04-19T10:33:39.292Z,1028.75
2017-04-19T10:34:39.314Z,1028.8
2017-04-19T10:35:39.337Z,1028.79
2017-04-19T10:36:39.359Z,1028.77
2017-04-19T10:37:39.380Z,1028.8
2017-04-19T10:38:39.402Z,1028.78
2017-04-19T10:39:39.426Z,1028.81
2017-04-19T10:40:39.445Z,1028.71
2017-04-19T10:42:39.489Z,1028.71
2017-04-19T10:43:39.511Z,1028.7
2017-04-19T10:44:39.532Z,1028.68
2017-04-19T10:45:39.554Z,1028.68
2017-04-19T10:46:39.576Z,1028.59
2017-04-19T10:47:39.598Z,1028.68
2017-04-19T10:48:39.618Z,1028.67
2017-04-19T10:49:39.640Z,1028.67
2017-04-19T10:50:39.662Z,1028.58
2017-04-19T10:52:39.705Z,1028.53
2017-04-19T10:53:39.727Z,1028.6
2017-04-19T10:54:39.749Z,1028.51
2017-04-19T10:55:39.770Z,1028.48
2017-04-19T10:56:39.791Z,1028.5
2017-04-19T10:58:39.835Z,1028.44
2017-04-19T10:59:39.856Z,1028.45
2017-04-19T11:00:39.878Z,1028.39
2017-04-19T11:01:39.900Z,1028.42
2017-04-19T11:02:39.921Z,1028.46
2017-04-19T11:03:39.943Z,1028.41
2017-04-19T11:04:39.964Z,1028.52
2017-04-19T11:05:39.986Z,1028.47
2017-04-19T11:06:40.007Z,1028.47
2017-04-19T11:07:40.028Z,1028.4
2017-04-19T11:08:40.050Z,1028.35
2017-04-19T11:09:40.072Z,1028.43
2017-04-19T11:10:40.093Z,1028.33
2017-04-19T11:11:40.115Z,1028.35
2017-04-19T11:12:40.137Z,1028.3
2017-04-19T11:14:40.180Z,1028.47
2017-04-19T11:15:40.206Z,1028.4
2017-04-19T11:16:40.224Z,1028.52
2017-04-19T11:17:40.244Z,1028.51
2017-04-19T11:18:40.266Z,1028.57
2017-04-19T11:19:40.288Z,1028.71
2017-04-19T11:20:40.310Z,1028.78
2017-04-19T11:21:40.329Z,1028.68
2017-04-19T11:22:40.351Z,1028.61
2017-04-19T11:23:40.373Z,1028.63
2017-04-19T11:24:40.392Z,1028.62
2017-04-19T11:25:40.414Z,1028.66
2017-04-19T11:26:40.436Z,1028.57
2017-04-19T11:27:40.456Z,1028.65
2017-04-19T11:28:40.477Z,1028.55
2017-04-19T11:30:40.519Z,1028.58
2017-04-19T11:31:40.541Z,1028.54
2017-04-19T11:32:40.561Z,1028.48
2017-04-19T11:33:40.582Z,1028.71
2017-04-19T11:34:40.603Z,1028.57
2017-04-19T11:35:40.625Z,1028.62
2017-04-19T11:36:40.645Z,1028.48
2017-04-19T11:37:40.666Z,1028.58
2017-04-19T11:38:40.688Z,1028.55
2017-04-19T11:39:40.709Z,1028.51
2017-04-19T11:40:40.730Z,1028.47
2017-04-19T11:41:40.751Z,1028.47
2017-04-19T11:42:40.772Z,1028.45
2017-04-19T11:43:40.794Z,1028.49
2017-04-19T11:45:40.838Z,1028.42
2017-04-19T11:46:40.858Z,1028.58
2017-04-19T11:47:40.879Z,1028.46
2017-04-19T11:48:40.900Z,1028.54
2017-04-19T11:49:40.923Z,1028.57
2017-04-19T11:50:40.944Z,1028.62
2017-04-19T11:51:40.965Z,1028.54
2017-04-19T11:52:40.986Z,1028.65
2017-04-19T11:53:41.006Z,1028.53
2017-04-19T11:54:41.027Z,1028.55
2017-04-19T11:55:41.048Z,1028.51
2017-04-19T11:56:41.069Z,1028.53
2017-04-19T11:57:41.089Z,1028.49
2017-04-19T11:58:41.113Z,1028.48
2017-04-19T11:59:41.131Z,1028.47
2017-04-19T12:00:41.152Z,1028.47
2017-04-19T12:01:41.172Z,1028.42
2017-04-19T12:02:41.192Z,1028.46
2017-04-19T12:03:41.213Z,1028.45
2017-04-19T12:04:41.233Z,1028.44
2017-04-19T12:05:41.255Z,1028.44
2017-04-19T12:06:41.275Z,1028.41
2017-04-19T12:07:41.297Z,1028.4
2017-04-19T12:08:41.316Z,1028.38
2017-04-19T12:09:41.336Z,1028.33
2017-04-19T12:10:41.358Z,1028.36
2017-04-19T12:11:41.379Z,1028.38
2017-04-19T12:12:41.400Z,1028.34
2017-04-19T12:13:41.421Z,1028.37
2017-04-19T12:14:41.442Z,1028.33
2017-04-19T12:15:41.462Z,1028.34
2017-04-19T12:17:41.504Z,1028.31
2017-04-19T12:18:41.525Z,1028.38
2017-04-19T12:19:41.545Z,1028.35
2017-04-19T12:20:41.566Z,1028.29
2017-04-19T12:21:41.588Z,1028.37
2017-04-19T12:22:41.610Z,1028.37
2017-04-19T12:23:41.629Z,1028.38
2017-04-19T12:24:41.651Z,1028.37
2017-04-19T12:25:41.672Z,1028.32
2017-04-19T12:26:41.693Z,1028.34
2017-04-19T12:27:41.715Z,1028.43
2017-04-19T12:28:41.735Z,1028.29
2017-04-19T12:29:41.757Z,1028.35
2017-04-19T12:30:41.779Z,1028.3
2017-04-19T12:31:41.799Z,1028.42
2017-04-19T12:33:41.842Z,1028.42
2017-04-19T12:34:41.862Z,1028.36
2017-04-19T12:35:41.882Z,1028.48
2017-04-19T12:36:41.904Z,1028.36
2017-04-19T12:37:41.923Z,1028.56
2017-04-19T12:38:41.944Z,1028.37
2017-04-19T12:39:41.965Z,1028.31
2017-04-19T12:40:41.987Z,1028.47
2017-04-19T12:41:42.007Z,1028.41
2017-04-19T12:42:42.028Z,1028.43
2017-04-19T12:43:42.049Z,1028.36
2017-04-19T12:44:42.069Z,1028.41
2017-04-19T12:45:42.089Z,1028.48
2017-04-19T12:46:42.110Z,1028.37
2017-04-19T12:47:42.131Z,1028.43
2017-04-19T12:49:42.173Z,1028.36
2017-04-19T12:50:42.193Z,1028.32